sensor_id;sensor_type;location;lat;lon;timestamp;P1;durP1;ratioP1;P2;durP2;ratioP2
64879;SDS011;51374;45.124;36.712;2022-07-06T00:01:47;2.95;;;2.05;;
64879;SDS011;51374;45.124;36.712;2022-07-06T00:04:13;2.58;;;1.92;;
64879;SDS011;51374;45.124;36.712;2022-07-06T00:06:39;1.58;;;1.20;;
64879;SDS011;51374;45.124;36.712;2022-07-06T00:09:05;3.13;;;2.38;;
64879;SDS011;51374;45.124;36.712;2022-07-06T00:11:32;1.98;;;1.48;;
64879;SDS011;51374;45.124;36.712;2022-07-06T00:13:58;3.22;;;2.33;;
64879;SDS011;51374;45.124;36.712;2022-07-06T00:16:24;3.10;;;2.35;;
64879;SDS011;51374;45.124;36.712;2022-07-06T00:18:50;3.97;;;2.13;;
64879;SDS011;51374;45.124;36.712;2022-07-06T00:21:16;4.07;;;2.67;;
64879;SDS011;51374;45.124;36.712;2022-07-06T00:23:43;2.83;;;2.38;;
64879;SDS011;51374;45.124;36.712;2022-07-06T00:26:09;6.60;;;3.03;;
64879;SDS011;51374;45.124;36.712;2022-07-06T00:28:35;4.00;;;2.22;;
64879;SDS011;51374;45.124;36.712;2022-07-06T00:31:01;4.40;;;3.55;;
64879;SDS011;51374;45.124;36.712;2022-07-06T00:33:27;2.47;;;2.28;;
64879;SDS011;51374;45.124;36.712;2022-07-06T00:35:53;3.67;;;2.55;;
64879;SDS011;51374;45.124;36.712;2022-07-06T00:38:19;2.15;;;1.95;;
64879;SDS011;51374;45.124;36.712;2022-07-06T00:40:45;4.00;;;2.92;;
64879;SDS011;51374;45.124;36.712;2022-07-06T00:43:11;1.55;;;1.02;;
64879;SDS011;51374;45.124;36.712;2022-07-06T00:45:37;3.10;;;2.45;;
64879;SDS011;51374;45.124;36.712;2022-07-06T00:48:03;15.43;;;2.95;;
64879;SDS011;51374;45.124;36.712;2022-07-06T00:50:29;3.30;;;2.30;;
64879;SDS011;51374;45.124;36.712;2022-07-06T00:52:56;3.78;;;3.13;;
64879;SDS011;51374;45.124;36.712;2022-07-06T00:55:26;4.13;;;2.28;;
64879;SDS011;51374;45.124;36.712;2022-07-06T00:57:56;3.65;;;2.75;;
64879;SDS011;51374;45.124;36.712;2022-07-06T01:00:23;4.22;;;3.03;;
64879;SDS011;51374;45.124;36.712;2022-07-06T01:02:51;2.65;;;2.45;;
64879;SDS011;51374;45.124;36.712;2022-07-06T01:05:18;5.35;;;2.92;;
64879;SDS011;51374;45.124;36.712;2022-07-06T01:07:48;3.33;;;2.25;;
64879;SDS011;51374;45.124;36.712;2022-07-06T01:10:18;3.92;;;2.03;;
64879;SDS011;51374;45.124;36.712;2022-07-06T01:12:45;3.20;;;1.95;;
64879;SDS011;51374;45.124;36.712;2022-07-06T01:15:14;3.95;;;2.55;;
64879;SDS011;51374;45.124;36.712;2022-07-06T01:17:42;3.30;;;2.88;;
64879;SDS011;51374;45.124;36.712;2022-07-06T01:22:38;2.03;;;1.75;;
64879;SDS011;51374;45.124;36.712;2022-07-06T01:25:05;2.80;;;2.40;;
64879;SDS011;51374;45.124;36.712;2022-07-06T01:27:32;5.68;;;2.42;;
64879;SDS011;51374;45.124;36.712;2022-07-06T01:30:08;3.53;;;3.10;;
64879;SDS011;51374;45.124;36.712;2022-07-06T01:32:36;5.35;;;3.03;;
64879;SDS011;51374;45.124;36.712;2022-07-06T01:35:02;1.95;;;1.17;;
64879;SDS011;51374;45.124;36.712;2022-07-06T01:37:31;3.30;;;1.92;;
64879;SDS011;51374;45.124;36.712;2022-07-06T01:40:00;3.45;;;2.67;;
64879;SDS011;51374;45.124;36.712;2022-07-06T01:42:27;5.80;;;3.13;;
64879;SDS011;51374;45.124;36.712;2022-07-06T01:44:54;4.38;;;2.50;;
64879;SDS011;51374;45.124;36.712;2022-07-06T01:47:20;3.40;;;2.40;;
64879;SDS011;51374;45.124;36.712;2022-07-06T01:49:48;2.78;;;2.58;;
64879;SDS011;51374;45.124;36.712;2022-07-06T01:52:15;3.70;;;3.15;;
64879;SDS011;51374;45.124;36.712;2022-07-06T01:54:41;3.50;;;2.67;;
64879;SDS011;51374;45.124;36.712;2022-07-06T01:57:08;4.05;;;2.53;;
64879;SDS011;51374;45.124;36.712;2022-07-06T01:59:34;4.55;;;2.55;;
64879;SDS011;51374;45.124;36.712;2022-07-06T02:02:00;4.88;;;2.78;;
64879;SDS011;51374;45.124;36.712;2022-07-06T02:04:26;3.75;;;2.22;;
64879;SDS011;51374;45.124;36.712;2022-07-06T02:06:52;3.78;;;2.70;;
64879;SDS011;51374;45.124;36.712;2022-07-06T02:09:18;3.05;;;1.73;;
64879;SDS011;51374;45.124;36.712;2022-07-06T02:11:44;3.47;;;2.78;;
64879;SDS011;51374;45.124;36.712;2022-07-06T02:14:10;2.92;;;2.58;;
64879;SDS011;51374;45.124;36.712;2022-07-06T02:16:38;2.67;;;1.73;;
64879;SDS011;51374;45.124;36.712;2022-07-06T02:19:04;3.00;;;2.65;;
64879;SDS011;51374;45.124;36.712;2022-07-06T02:21:30;1.15;;;1.13;;
64879;SDS011;51374;45.124;36.712;2022-07-06T02:23:56;3.08;;;2.17;;
64879;SDS011;51374;45.124;36.712;2022-07-06T02:26:23;2.75;;;2.22;;
64879;SDS011;51374;45.124;36.712;2022-07-06T02:28:49;3.40;;;2.67;;
64879;SDS011;51374;45.124;36.712;2022-07-06T02:31:16;4.50;;;2.25;;
64879;SDS011;51374;45.124;36.712;2022-07-06T02:33:45;1.30;;;1.20;;
64879;SDS011;51374;45.124;36.712;2022-07-06T02:36:12;3.75;;;3.30;;
64879;SDS011;51374;45.124;36.712;2022-07-06T02:38:38;5.18;;;2.83;;
64879;SDS011;51374;45.124;36.712;2022-07-06T02:41:04;1.70;;;1.60;;
64879;SDS011;51374;45.124;36.712;2022-07-06T02:43:30;1.55;;;1.45;;
64879;SDS011;51374;45.124;36.712;2022-07-06T02:45:56;2.15;;;1.77;;
64879;SDS011;51374;45.124;36.712;2022-07-06T02:48:22;2.60;;;2.10;;
64879;SDS011;51374;45.124;36.712;2022-07-06T02:50:50;4.60;;;2.80;;
64879;SDS011;51374;45.124;36.712;2022-07-06T02:53:17;8.23;;;3.50;;
64879;SDS011;51374;45.124;36.712;2022-07-06T02:55:47;2.67;;;2.38;;
64879;SDS011;51374;45.124;36.712;2022-07-06T02:58:13;4.75;;;3.63;;
64879;SDS011;51374;45.124;36.712;2022-07-06T03:00:39;0.77;;;0.77;;
64879;SDS011;51374;45.124;36.712;2022-07-06T03:03:05;3.42;;;3.13;;
64879;SDS011;51374;45.124;36.712;2022-07-06T03:05:33;3.30;;;2.63;;
64879;SDS011;51374;45.124;36.712;2022-07-06T03:07:59;4.22;;;3.08;;
64879;SDS011;51374;45.124;36.712;2022-07-06T03:10:25;4.40;;;3.00;;
64879;SDS011;51374;45.124;36.712;2022-07-06T03:12:51;3.25;;;2.63;;
64879;SDS011;51374;45.124;36.712;2022-07-06T03:15:17;1.98;;;1.75;;
64879;SDS011;51374;45.124;36.712;2022-07-06T03:17:45;12.27;;;2.88;;
64879;SDS011;51374;45.124;36.712;2022-07-06T03:20:12;5.65;;;2.70;;
64879;SDS011;51374;45.124;36.712;2022-07-06T03:22:40;2.00;;;1.83;;
64879;SDS011;51374;45.124;36.712;2022-07-06T03:25:08;6.32;;;3.15;;
64879;SDS011;51374;45.124;36.712;2022-07-06T03:27:36;5.07;;;2.67;;
64879;SDS011;51374;45.124;36.712;2022-07-06T03:30:02;6.15;;;3.38;;
64879;SDS011;51374;45.124;36.712;2022-07-06T03:32:31;4.93;;;3.17;;
64879;SDS011;51374;45.124;36.712;2022-07-06T03:34:59;4.10;;;1.77;;
64879;SDS011;51374;45.124;36.712;2022-07-06T03:37:25;3.08;;;2.65;;
64879;SDS011;51374;45.124;36.712;2022-07-06T03:39:52;3.17;;;2.88;;
64879;SDS011;51374;45.124;36.712;2022-07-06T03:42:18;3.45;;;2.50;;
64879;SDS011;51374;45.124;36.712;2022-07-06T03:44:44;2.47;;;2.25;;
64879;SDS011;51374;45.124;36.712;2022-07-06T03:47:11;3.38;;;2.70;;
64879;SDS011;51374;45.124;36.712;2022-07-06T03:49:37;3.30;;;2.45;;
64879;SDS011;51374;45.124;36.712;2022-07-06T03:52:05;6.85;;;3.38;;
64879;SDS011;51374;45.124;36.712;2022-07-06T03:54:39;3.08;;;2.15;;
64879;SDS011;51374;45.124;36.712;2022-07-06T03:57:06;3.05;;;2.17;;
64879;SDS011;51374;45.124;36.712;2022-07-06T03:59:33;6.55;;;2.80;;
64879;SDS011;51374;45.124;36.712;2022-07-06T04:01:59;4.50;;;4.07;;
64879;SDS011;51374;45.124;36.712;2022-07-06T04:04:25;4.10;;;3.20;;
64879;SDS011;51374;45.124;36.712;2022-07-06T04:06:52;3.85;;;2.78;;
64879;SDS011;51374;45.124;36.712;2022-07-06T04:09:18;6.05;;;2.58;;
64879;SDS011;51374;45.124;36.712;2022-07-06T04:11:45;3.25;;;1.77;;
64879;SDS011;51374;45.124;36.712;2022-07-06T04:14:12;4.75;;;2.28;;
64879;SDS011;51374;45.124;36.712;2022-07-06T04:16:38;2.88;;;2.38;;
64879;SDS011;51374;45.124;36.712;2022-07-06T04:19:05;3.20;;;2.55;;
64879;SDS011;51374;45.124;36.712;2022-07-06T04:21:32;2.83;;;2.53;;
64879;SDS011;51374;45.124;36.712;2022-07-06T04:23:59;2.80;;;2.17;;
64879;SDS011;51374;45.124;36.712;2022-07-06T04:26:26;3.08;;;2.50;;
64879;SDS011;51374;45.124;36.712;2022-07-06T04:28:52;3.70;;;2.17;;
64879;SDS011;51374;45.124;36.712;2022-07-06T04:31:18;3.33;;;2.30;;
64879;SDS011;51374;45.124;36.712;2022-07-06T04:33:48;2.03;;;1.42;;
64879;SDS011;51374;45.124;36.712;2022-07-06T04:36:14;2.85;;;2.40;;
64879;SDS011;51374;45.124;36.712;2022-07-06T04:38:42;2.65;;;2.25;;
64879;SDS011;51374;45.124;36.712;2022-07-06T04:41:10;1.20;;;1.10;;
64879;SDS011;51374;45.124;36.712;2022-07-06T04:43:36;5.93;;;2.17;;
64879;SDS011;51374;45.124;36.712;2022-07-06T04:46:03;8.50;;;2.03;;
64879;SDS011;51374;45.124;36.712;2022-07-06T04:48:33;3.35;;;2.45;;
64879;SDS011;51374;45.124;36.712;2022-07-06T04:51:02;2.42;;;1.83;;
64879;SDS011;51374;45.124;36.712;2022-07-06T04:53:28;3.90;;;1.98;;
64879;SDS011;51374;45.124;36.712;2022-07-06T04:55:55;2.25;;;1.83;;
64879;SDS011;51374;45.124;36.712;2022-07-06T04:58:22;2.53;;;2.13;;
64879;SDS011;51374;45.124;36.712;2022-07-06T05:00:49;2.88;;;2.42;;
64879;SDS011;51374;45.124;36.712;2022-07-06T05:03:15;2.28;;;1.70;;
64879;SDS011;51374;45.124;36.712;2022-07-06T05:05:41;3.50;;;1.83;;
64879;SDS011;51374;45.124;36.712;2022-07-06T05:08:07;1.38;;;1.25;;
64879;SDS011;51374;45.124;36.712;2022-07-06T05:10:33;4.05;;;1.65;;
64879;SDS011;51374;45.124;36.712;2022-07-06T05:12:59;3.30;;;1.95;;
64879;SDS011;51374;45.124;36.712;2022-07-06T05:15:27;5.80;;;2.22;;
64879;SDS011;51374;45.124;36.712;2022-07-06T05:17:53;1.88;;;1.25;;
64879;SDS011;51374;45.124;36.712;2022-07-06T05:20:19;2.95;;;2.05;;
64879;SDS011;51374;45.124;36.712;2022-07-06T05:22:47;2.05;;;1.52;;
64879;SDS011;51374;45.124;36.712;2022-07-06T05:25:17;1.88;;;1.67;;
64879;SDS011;51374;45.124;36.712;2022-07-06T05:27:43;5.57;;;2.55;;
64879;SDS011;51374;45.124;36.712;2022-07-06T05:30:09;1.95;;;1.75;;
64879;SDS011;51374;45.124;36.712;2022-07-06T05:32:35;2.10;;;1.65;;
64879;SDS011;51374;45.124;36.712;2022-07-06T05:35:01;2.85;;;2.10;;
64879;SDS011;51374;45.124;36.712;2022-07-06T05:37:28;3.58;;;1.90;;
64879;SDS011;51374;45.124;36.712;2022-07-06T05:39:54;2.45;;;1.95;;
64879;SDS011;51374;45.124;36.712;2022-07-06T05:42:20;1.73;;;1.60;;
64879;SDS011;51374;45.124;36.712;2022-07-06T05:44:47;2.35;;;1.92;;
64879;SDS011;51374;45.124;36.712;2022-07-06T05:47:13;2.55;;;2.35;;
64879;SDS011;51374;45.124;36.712;2022-07-06T05:50:11;2.55;;;2.22;;
64879;SDS011;51374;45.124;36.712;2022-07-06T05:52:39;7.90;;;2.25;;
64879;SDS011;51374;45.124;36.712;2022-07-06T05:55:07;2.55;;;1.98;;
64879;SDS011;51374;45.124;36.712;2022-07-06T05:57:33;2.75;;;2.25;;
64879;SDS011;51374;45.124;36.712;2022-07-06T05:59:59;2.33;;;2.10;;
64879;SDS011;51374;45.124;36.712;2022-07-06T06:02:26;2.17;;;1.95;;
64879;SDS011;51374;45.124;36.712;2022-07-06T06:05:01;3.10;;;2.58;;
64879;SDS011;51374;45.124;36.712;2022-07-06T06:07:27;3.35;;;2.20;;
64879;SDS011;51374;45.124;36.712;2022-07-06T06:09:53;6.00;;;2.42;;
64879;SDS011;51374;45.124;36.712;2022-07-06T06:12:19;3.17;;;2.28;;
64879;SDS011;51374;45.124;36.712;2022-07-06T06:14:45;1.60;;;1.30;;
64879;SDS011;51374;45.124;36.712;2022-07-06T06:17:11;3.28;;;2.20;;
64879;SDS011;51374;45.124;36.712;2022-07-06T06:19:37;2.20;;;1.85;;
64879;SDS011;51374;45.124;36.712;2022-07-06T06:22:03;6.53;;;2.28;;
64879;SDS011;51374;45.124;36.712;2022-07-06T06:24:29;3.00;;;1.92;;
64879;SDS011;51374;45.124;36.712;2022-07-06T06:26:55;4.90;;;2.38;;
64879;SDS011;51374;45.124;36.712;2022-07-06T06:29:23;2.92;;;2.53;;
64879;SDS011;51374;45.124;36.712;2022-07-06T06:31:49;4.18;;;2.47;;
64879;SDS011;51374;45.124;36.712;2022-07-06T06:34:15;3.83;;;2.35;;
64879;SDS011;51374;45.124;36.712;2022-07-06T06:36:41;3.28;;;2.85;;
64879;SDS011;51374;45.124;36.712;2022-07-06T06:39:07;4.43;;;2.97;;
64879;SDS011;51374;45.124;36.712;2022-07-06T06:41:33;3.15;;;2.78;;
64879;SDS011;51374;45.124;36.712;2022-07-06T06:43:58;3.30;;;2.72;;
64879;SDS011;51374;45.124;36.712;2022-07-06T06:46:28;3.88;;;2.75;;
64879;SDS011;51374;45.124;36.712;2022-07-06T06:48:54;3.25;;;2.88;;
64879;SDS011;51374;45.124;36.712;2022-07-06T06:51:20;4.43;;;2.67;;
64879;SDS011;51374;45.124;36.712;2022-07-06T06:53:46;5.93;;;3.05;;
64879;SDS011;51374;45.124;36.712;2022-07-06T06:56:12;3.65;;;2.47;;
64879;SDS011;51374;45.124;36.712;2022-07-06T06:58:38;8.52;;;3.30;;
64879;SDS011;51374;45.124;36.712;2022-07-06T07:01:04;4.78;;;3.25;;
64879;SDS011;51374;45.124;36.712;2022-07-06T07:03:30;3.13;;;2.42;;
64879;SDS011;51374;45.124;36.712;2022-07-06T07:05:57;4.57;;;2.83;;
64879;SDS011;51374;45.124;36.712;2022-07-06T07:08:23;4.70;;;2.97;;
64879;SDS011;51374;45.124;36.712;2022-07-06T07:10:49;3.08;;;2.83;;
64879;SDS011;51374;45.124;36.712;2022-07-06T07:13:14;3.17;;;2.58;;
64879;SDS011;51374;45.124;36.712;2022-07-06T07:15:40;5.63;;;3.47;;
64879;SDS011;51374;45.124;36.712;2022-07-06T07:18:06;3.38;;;2.85;;
64879;SDS011;51374;45.124;36.712;2022-07-06T07:20:32;13.40;;;3.28;;
64879;SDS011;51374;45.124;36.712;2022-07-06T07:22:59;5.88;;;3.20;;
64879;SDS011;51374;45.124;36.712;2022-07-06T07:25:26;3.80;;;3.42;;
64879;SDS011;51374;45.124;36.712;2022-07-06T07:27:52;4.70;;;3.10;;
64879;SDS011;51374;45.124;36.712;2022-07-06T07:30:19;6.25;;;3.17;;
64879;SDS011;51374;45.124;36.712;2022-07-06T07:32:45;3.58;;;3.25;;
64879;SDS011;51374;45.124;36.712;2022-07-06T07:35:11;5.45;;;3.65;;
64879;SDS011;51374;45.124;36.712;2022-07-06T07:37:37;4.50;;;3.50;;
64879;SDS011;51374;45.124;36.712;2022-07-06T07:40:04;4.00;;;2.83;;
64879;SDS011;51374;45.124;36.712;2022-07-06T07:42:31;5.00;;;3.05;;
64879;SDS011;51374;45.124;36.712;2022-07-06T07:44:58;5.00;;;3.15;;
64879;SDS011;51374;45.124;36.712;2022-07-06T07:47:23;4.50;;;3.42;;
64879;SDS011;51374;45.124;36.712;2022-07-06T07:49:49;2.88;;;2.50;;
64879;SDS011;51374;45.124;36.712;2022-07-06T07:52:15;3.33;;;2.60;;
64879;SDS011;51374;45.124;36.712;2022-07-06T07:54:41;4.25;;;2.78;;
64879;SDS011;51374;45.124;36.712;2022-07-06T07:57:07;6.13;;;2.72;;
64879;SDS011;51374;45.124;36.712;2022-07-06T07:59:33;3.72;;;3.38;;
64879;SDS011;51374;45.124;36.712;2022-07-06T08:01:59;4.38;;;3.30;;
64879;SDS011;51374;45.124;36.712;2022-07-06T08:04:25;4.35;;;2.90;;
64879;SDS011;51374;45.124;36.712;2022-07-06T08:06:51;5.30;;;3.13;;
64879;SDS011;51374;45.124;36.712;2022-07-06T08:09:17;4.53;;;2.90;;
64879;SDS011;51374;45.124;36.712;2022-07-06T08:11:43;4.43;;;3.53;;
64879;SDS011;51374;45.124;36.712;2022-07-06T08:14:09;3.53;;;2.63;;
64879;SDS011;51374;45.124;36.712;2022-07-06T08:16:36;3.42;;;2.97;;
64879;SDS011;51374;45.124;36.712;2022-07-06T08:19:02;4.53;;;2.88;;
64879;SDS011;51374;45.124;36.712;2022-07-06T08:21:28;4.32;;;3.08;;
64879;SDS011;51374;45.124;36.712;2022-07-06T08:23:54;3.80;;;2.95;;
64879;SDS011;51374;45.124;36.712;2022-07-06T08:26:21;3.90;;;2.70;;
64879;SDS011;51374;45.124;36.712;2022-07-06T08:28:47;3.15;;;2.85;;
64879;SDS011;51374;45.124;36.712;2022-07-06T08:31:13;3.30;;;2.63;;
64879;SDS011;51374;45.124;36.712;2022-07-06T08:33:39;3.47;;;2.80;;
64879;SDS011;51374;45.124;36.712;2022-07-06T08:36:05;3.95;;;2.65;;
64879;SDS011;51374;45.124;36.712;2022-07-06T08:38:31;3.70;;;3.00;;
64879;SDS011;51374;45.124;36.712;2022-07-06T08:40:57;2.80;;;2.60;;
64879;SDS011;51374;45.124;36.712;2022-07-06T08:43:23;5.47;;;2.80;;
64879;SDS011;51374;45.124;36.712;2022-07-06T08:45:50;3.53;;;2.25;;
64879;SDS011;51374;45.124;36.712;2022-07-06T08:48:19;3.80;;;3.17;;
64879;SDS011;51374;45.124;36.712;2022-07-06T08:50:48;6.03;;;2.58;;
64879;SDS011;51374;45.124;36.712;2022-07-06T08:53:15;2.75;;;2.42;;
64879;SDS011;51374;45.124;36.712;2022-07-06T08:55:43;3.00;;;2.72;;
64879;SDS011;51374;45.124;36.712;2022-07-06T08:58:09;2.83;;;2.28;;
64879;SDS011;51374;45.124;36.712;2022-07-06T09:00:36;3.13;;;2.83;;
64879;SDS011;51374;45.124;36.712;2022-07-06T09:03:02;4.20;;;2.65;;
64879;SDS011;51374;45.124;36.712;2022-07-06T09:05:28;2.40;;;1.98;;
64879;SDS011;51374;45.124;36.712;2022-07-06T09:07:54;2.05;;;1.90;;
64879;SDS011;51374;45.124;36.712;2022-07-06T09:10:22;2.33;;;1.95;;
64879;SDS011;51374;45.124;36.712;2022-07-06T09:12:48;4.65;;;2.38;;
64879;SDS011;51374;45.124;36.712;2022-07-06T09:15:14;4.97;;;2.67;;
64879;SDS011;51374;45.124;36.712;2022-07-06T09:17:41;2.75;;;2.00;;
64879;SDS011;51374;45.124;36.712;2022-07-06T09:20:12;2.60;;;2.40;;
64879;SDS011;51374;45.124;36.712;2022-07-06T09:22:39;2.97;;;1.98;;
64879;SDS011;51374;45.124;36.712;2022-07-06T09:25:12;2.80;;;2.22;;
64879;SDS011;51374;45.124;36.712;2022-07-06T09:27:40;5.88;;;2.40;;
64879;SDS011;51374;45.124;36.712;2022-07-06T09:30:08;3.08;;;2.20;;
64879;SDS011;51374;45.124;36.712;2022-07-06T09:32:39;3.38;;;2.17;;
64879;SDS011;51374;45.124;36.712;2022-07-06T09:35:06;2.00;;;1.67;;
64879;SDS011;51374;45.124;36.712;2022-07-06T09:37:33;3.30;;;2.13;;
64879;SDS011;51374;45.124;36.712;2022-07-06T09:39:59;4.45;;;2.33;;
64879;SDS011;51374;45.124;36.712;2022-07-06T09:42:25;3.58;;;1.67;;
64879;SDS011;51374;45.124;36.712;2022-07-06T09:44:53;3.25;;;2.30;;
64879;SDS011;51374;45.124;36.712;2022-07-06T09:47:19;4.70;;;2.33;;
64879;SDS011;51374;45.124;36.712;2022-07-06T09:49:46;3.08;;;1.95;;
64879;SDS011;51374;45.124;36.712;2022-07-06T09:52:14;3.60;;;2.08;;
64879;SDS011;51374;45.124;36.712;2022-07-06T09:54:40;2.60;;;1.95;;
64879;SDS011;51374;45.124;36.712;2022-07-06T09:57:07;2.25;;;1.73;;
64879;SDS011;51374;45.124;36.712;2022-07-06T09:59:33;2.20;;;1.95;;
64879;SDS011;51374;45.124;36.712;2022-07-06T10:02:02;2.70;;;2.30;;
64879;SDS011;51374;45.124;36.712;2022-07-06T10:04:29;2.10;;;1.90;;
64879;SDS011;51374;45.124;36.712;2022-07-06T10:06:56;3.15;;;2.53;;
64879;SDS011;51374;45.124;36.712;2022-07-06T10:09:24;3.83;;;2.28;;
64879;SDS011;51374;45.124;36.712;2022-07-06T10:11:56;3.08;;;2.33;;
64879;SDS011;51374;45.124;36.712;2022-07-06T10:14:24;4.00;;;2.33;;
64879;SDS011;51374;45.124;36.712;2022-07-06T10:17:09;2.40;;;1.95;;
64879;SDS011;51374;45.124;36.712;2022-07-06T10:19:35;2.53;;;1.75;;
64879;SDS011;51374;45.124;36.712;2022-07-06T10:22:02;3.15;;;2.55;;
64879;SDS011;51374;45.124;36.712;2022-07-06T10:24:29;2.13;;;1.92;;
64879;SDS011;51374;45.124;36.712;2022-07-06T10:26:55;3.97;;;1.80;;
64879;SDS011;51374;45.124;36.712;2022-07-06T10:29:22;3.00;;;2.10;;
64879;SDS011;51374;45.124;36.712;2022-07-06T10:31:50;2.97;;;2.25;;
64879;SDS011;51374;45.124;36.712;2022-07-06T10:34:18;2.22;;;2.03;;
64879;SDS011;51374;45.124;36.712;2022-07-06T10:36:48;4.30;;;2.40;;
64879;SDS011;51374;45.124;36.712;2022-07-06T10:39:16;2.72;;;2.20;;
64879;SDS011;51374;45.124;36.712;2022-07-06T10:48:15;5.35;;;2.65;;
64879;SDS011;51374;45.124;36.712;2022-07-06T10:53:12;2.17;;;1.90;;
64879;SDS011;51374;45.124;36.712;2022-07-06T10:55:40;3.22;;;2.30;;
64879;SDS011;51374;45.124;36.712;2022-07-06T10:58:09;3.58;;;2.38;;
64879;SDS011;51374;45.124;36.712;2022-07-06T11:01:09;3.03;;;2.30;;
64879;SDS011;51374;45.124;36.712;2022-07-06T11:06:14;2.50;;;2.30;;
64879;SDS011;51374;45.124;36.712;2022-07-06T11:08:47;5.88;;;2.25;;
64879;SDS011;51374;45.124;36.712;2022-07-06T11:11:25;2.55;;;2.22;;
64879;SDS011;51374;45.124;36.712;2022-07-06T11:14:09;2.55;;;2.35;;
64879;SDS011;51374;45.124;36.712;2022-07-06T11:19:20;7.03;;;2.35;;
64879;SDS011;51374;45.124;36.712;2022-07-06T11:21:51;2.17;;;1.92;;
64879;SDS011;51374;45.124;36.712;2022-07-06T11:26:49;3.35;;;2.13;;
64879;SDS011;51374;45.124;36.712;2022-07-06T11:29:17;3.72;;;2.10;;
64879;SDS011;51374;45.124;36.712;2022-07-06T11:31:49;4.65;;;2.25;;
64879;SDS011;51374;45.124;36.712;2022-07-06T11:34:20;3.72;;;2.03;;
64879;SDS011;51374;45.124;36.712;2022-07-06T11:36:48;2.15;;;1.83;;
64879;SDS011;51374;45.124;36.712;2022-07-06T11:39:15;2.50;;;1.90;;
64879;SDS011;51374;45.124;36.712;2022-07-06T11:41:43;8.73;;;3.20;;
64879;SDS011;51374;45.124;36.712;2022-07-06T11:44:09;3.42;;;2.33;;
64879;SDS011;51374;45.124;36.712;2022-07-06T11:46:35;2.45;;;2.25;;
64879;SDS011;51374;45.124;36.712;2022-07-06T11:49:03;4.45;;;2.03;;
64879;SDS011;51374;45.124;36.712;2022-07-06T11:51:31;4.43;;;2.20;;
64879;SDS011;51374;45.124;36.712;2022-07-06T11:54:02;2.38;;;1.98;;
64879;SDS011;51374;45.124;36.712;2022-07-06T11:56:54;2.28;;;2.08;;
64879;SDS011;51374;45.124;36.712;2022-07-06T11:59:29;3.33;;;1.88;;
64879;SDS011;51374;45.124;36.712;2022-07-06T12:02:01;2.50;;;1.77;;
64879;SDS011;51374;45.124;36.712;2022-07-06T12:04:29;3.13;;;1.95;;
64879;SDS011;51374;45.124;36.712;2022-07-06T12:07:00;2.13;;;1.90;;
64879;SDS011;51374;45.124;36.712;2022-07-06T12:09:31;3.40;;;2.17;;
64879;SDS011;51374;45.124;36.712;2022-07-06T12:11:57;3.00;;;2.25;;
64879;SDS011;51374;45.124;36.712;2022-07-06T12:14:27;2.53;;;1.80;;
64879;SDS011;51374;45.124;36.712;2022-07-06T12:16:55;2.33;;;1.90;;
64879;SDS011;51374;45.124;36.712;2022-07-06T12:19:21;3.20;;;2.58;;
64879;SDS011;51374;45.124;36.712;2022-07-06T12:21:49;2.38;;;1.75;;
64879;SDS011;51374;45.124;36.712;2022-07-06T12:24:21;2.63;;;2.20;;
64879;SDS011;51374;45.124;36.712;2022-07-06T12:26:51;2.22;;;2.03;;
64879;SDS011;51374;45.124;36.712;2022-07-06T12:29:18;1.98;;;1.48;;
64879;SDS011;51374;45.124;36.712;2022-07-06T12:31:54;2.30;;;1.88;;
64879;SDS011;51374;45.124;36.712;2022-07-06T12:34:22;2.47;;;1.65;;
64879;SDS011;51374;45.124;36.712;2022-07-06T12:36:50;1.05;;;0.90;;
64879;SDS011;51374;45.124;36.712;2022-07-06T12:39:20;2.03;;;1.52;;
64879;SDS011;51374;45.124;36.712;2022-07-06T12:41:49;1.60;;;1.25;;
64879;SDS011;51374;45.124;36.712;2022-07-06T12:44:20;1.38;;;1.27;;
64879;SDS011;51374;45.124;36.712;2022-07-06T12:46:48;1.55;;;1.35;;
64879;SDS011;51374;45.124;36.712;2022-07-06T12:49:17;1.20;;;1.10;;
64879;SDS011;51374;45.124;36.712;2022-07-06T12:51:55;1.25;;;1.15;;
64879;SDS011;51374;45.124;36.712;2022-07-06T12:54:32;1.58;;;1.23;;
64879;SDS011;51374;45.124;36.712;2022-07-06T12:59:41;0.85;;;0.85;;
64879;SDS011;51374;45.124;36.712;2022-07-06T13:02:29;0.98;;;0.90;;
64879;SDS011;51374;45.124;36.712;2022-07-06T13:05:01;1.02;;;0.98;;
64879;SDS011;51374;45.124;36.712;2022-07-06T13:10:02;2.55;;;0.95;;
64879;SDS011;51374;45.124;36.712;2022-07-06T13:12:30;0.95;;;0.95;;
64879;SDS011;51374;45.124;36.712;2022-07-06T13:14:56;0.88;;;0.75;;
64879;SDS011;51374;45.124;36.712;2022-07-06T13:17:22;0.98;;;0.98;;
64879;SDS011;51374;45.124;36.712;2022-07-06T13:19:48;0.73;;;0.70;;
64879;SDS011;51374;45.124;36.712;2022-07-06T13:22:14;1.35;;;1.15;;
64879;SDS011;51374;45.124;36.712;2022-07-06T13:24:41;1.27;;;0.93;;
64879;SDS011;51374;45.124;36.712;2022-07-06T13:27:07;2.53;;;0.70;;
64879;SDS011;51374;45.124;36.712;2022-07-06T13:29:34;2.15;;;1.17;;
64879;SDS011;51374;45.124;36.712;2022-07-06T13:32:00;1.17;;;0.82;;
64879;SDS011;51374;45.124;36.712;2022-07-06T13:34:27;1.58;;;0.75;;
64879;SDS011;51374;45.124;36.712;2022-07-06T13:36:53;1.33;;;1.17;;
64879;SDS011;51374;45.124;36.712;2022-07-06T13:39:19;1.05;;;0.93;;
64879;SDS011;51374;45.124;36.712;2022-07-06T13:41:45;0.73;;;0.73;;
64879;SDS011;51374;45.124;36.712;2022-07-06T13:44:11;0.95;;;0.70;;
64879;SDS011;51374;45.124;36.712;2022-07-06T13:46:38;1.55;;;1.17;;
64879;SDS011;51374;45.124;36.712;2022-07-06T13:49:04;1.02;;;0.85;;
64879;SDS011;51374;45.124;36.712;2022-07-06T13:51:31;1.88;;;1.10;;
64879;SDS011;51374;45.124;36.712;2022-07-06T13:54:00;0.82;;;0.68;;
64879;SDS011;51374;45.124;36.712;2022-07-06T13:56:26;1.67;;;1.55;;
64879;SDS011;51374;45.124;36.712;2022-07-06T13:58:53;1.50;;;0.98;;
64879;SDS011;51374;45.124;36.712;2022-07-06T14:01:19;2.65;;;1.48;;
64879;SDS011;51374;45.124;36.712;2022-07-06T14:03:45;1.17;;;0.98;;
64879;SDS011;51374;45.124;36.712;2022-07-06T14:06:12;1.95;;;1.27;;
64879;SDS011;51374;45.124;36.712;2022-07-06T14:08:38;1.33;;;1.13;;
64879;SDS011;51374;45.124;36.712;2022-07-06T14:11:05;1.15;;;0.98;;
64879;SDS011;51374;45.124;36.712;2022-07-06T14:13:33;1.52;;;1.00;;
64879;SDS011;51374;45.124;36.712;2022-07-06T14:16:01;1.40;;;1.30;;
64879;SDS011;51374;45.124;36.712;2022-07-06T14:18:28;0.55;;;0.55;;
64879;SDS011;51374;45.124;36.712;2022-07-06T14:20:54;0.88;;;0.88;;
64879;SDS011;51374;45.124;36.712;2022-07-06T14:23:20;0.80;;;0.80;;
64879;SDS011;51374;45.124;36.712;2022-07-06T14:25:47;1.02;;;0.80;;
64879;SDS011;51374;45.124;36.712;2022-07-06T14:28:14;1.33;;;1.23;;
64879;SDS011;51374;45.124;36.712;2022-07-06T14:30:42;0.70;;;0.70;;
64879;SDS011;51374;45.124;36.712;2022-07-06T14:33:10;3.58;;;0.80;;
64879;SDS011;51374;45.124;36.712;2022-07-06T14:35:41;1.02;;;0.77;;
64879;SDS011;51374;45.124;36.712;2022-07-06T14:38:17;1.98;;;1.10;;
64879;SDS011;51374;45.124;36.712;2022-07-06T14:40:44;1.70;;;1.20;;
64879;SDS011;51374;45.124;36.712;2022-07-06T14:43:10;0.77;;;0.60;;
64879;SDS011;51374;45.124;36.712;2022-07-06T14:45:37;0.40;;;0.40;;
64879;SDS011;51374;45.124;36.712;2022-07-06T14:48:03;1.48;;;0.52;;
64879;SDS011;51374;45.124;36.712;2022-07-06T14:50:30;0.70;;;0.70;;
64879;SDS011;51374;45.124;36.712;2022-07-06T14:52:57;0.77;;;0.75;;
64879;SDS011;51374;45.124;36.712;2022-07-06T14:55:22;0.82;;;0.82;;
64879;SDS011;51374;45.124;36.712;2022-07-06T14:57:49;1.10;;;0.98;;
64879;SDS011;51374;45.124;36.712;2022-07-06T15:00:15;0.63;;;0.63;;